KHBG/HBG METAR and TAF weather

Enter ICAO airport designator
Station Type Date Time Source
KHBG METAR 2019/06/18 04:53 UTC NOAA

KHBG 180453Z AUTO 11004KT 10SM -RA SCT110 24/23 A2997 RMK AO2 RAB38 SLP146 P0000 T02440233


Station Type Date Time Source
KHBG Decoded METAR 2019/06/18 04:53 UTC NOAA

HATTIESBURG CHAIN MUNICIPAL, MS, United States (KHBG) 31-16N 89-15W 44M
Jun 18, 2019 - 12:53 AM EDT / 2019.06.18 0453 UTC
Wind: from the ESE (110 degrees) at 5 MPH (4 KT):0
Visibility: 10 mile(s):0
Sky conditions: partly cloudy
Weather: light rain
Precipitation last hour: A trace
Temperature: 75.9 F (24.4 C)
Dew Point: 73.9 F (23.3 C)
Relative Humidity: 93%
Pressure (altimeter): 29.97 in. Hg (1014 hPa)
ob: KHBG 180453Z AUTO 11004KT 10SM -RA SCT110 24/23 A2997 RMK AO2 RAB38 SLP146 P0000 T02440233
cycle: 5

Station Type Date Time Source
KHBG TAF 2019/06/17 18:34 UTC NOAA

TAF KHBG 171732Z 1718/1818 18009KT P6SM VCTS SCT025 BKN035CB
FM172100 21010G20KT 4SM TSRA BR BKN025CB
FM172230 18005KT P6SM VCSH BKN050
FM180000 16003KT P6SM BKN050
FM180800 00000KT 6SM BR BKN015 OVC025
FM181500 21007KT P6SM BKN040

Example: see airport list